createdAt,value
2018-03-22T00:02:26.052Z,17.50
2018-03-22T00:04:53.624Z,13.37
2018-03-22T00:07:21.146Z,14.50
2018-03-22T00:09:48.673Z,18.30
2018-03-22T00:12:16.203Z,17.00
2018-03-22T00:14:43.748Z,16.20
2018-03-22T00:17:12.069Z,16.93
2018-03-22T00:19:39.587Z,15.83
2018-03-22T00:22:07.873Z,17.67
2018-03-22T00:24:35.400Z,20.50
2018-03-22T00:27:03.007Z,18.90
2018-03-22T00:29:30.548Z,16.67
2018-03-22T00:31:58.078Z,18.00
2018-03-22T00:34:25.648Z,18.63
2018-03-22T00:36:53.154Z,20.50
2018-03-22T00:39:20.779Z,18.13
2018-03-22T00:41:48.315Z,17.47
2018-03-22T00:44:15.836Z,19.23
2018-03-22T00:46:43.361Z,17.87
2018-03-22T00:49:10.882Z,18.83
2018-03-22T00:51:38.396Z,19.73
2018-03-22T00:54:06.676Z,19.00
2018-03-22T00:56:34.267Z,20.10
2018-03-22T00:59:01.792Z,19.23
2018-03-22T01:01:30.076Z,21.87
2018-03-22T01:03:58.364Z,18.97
2018-03-22T01:06:25.884Z,22.57
2018-03-22T01:08:53.431Z,21.23
2018-03-22T01:11:20.951Z,19.57
2018-03-22T01:13:48.589Z,19.37
2018-03-22T01:16:16.900Z,19.77
2018-03-22T01:18:44.453Z,22.13
2018-03-22T01:21:12.004Z,19.70
2018-03-22T01:23:39.523Z,20.17
2018-03-22T01:26:07.061Z,22.50
2018-03-22T01:28:35.413Z,18.50
2018-03-22T01:31:02.926Z,24.63
2018-03-22T01:33:30.448Z,22.33
2018-03-22T01:35:57.974Z,21.27
2018-03-22T01:38:25.478Z,21.83
2018-03-22T01:40:52.995Z,21.30
2018-03-22T01:43:20.519Z,25.07
2018-03-22T01:45:48.620Z,22.50
2018-03-22T01:48:16.911Z,21.00
2018-03-22T01:50:44.422Z,22.83
2018-03-22T01:53:13.899Z,21.53
2018-03-22T01:55:41.423Z,22.73
2018-03-22T01:58:08.943Z,23.77
2018-03-22T02:00:36.472Z,23.40
2018-03-22T02:03:03.993Z,21.27
2018-03-22T02:05:31.521Z,23.17
2018-03-22T02:07:59.031Z,25.00
2018-03-22T02:10:26.571Z,18.27
2018-03-22T02:12:54.104Z,22.97
2018-03-22T02:15:21.610Z,21.53
2018-03-22T02:17:49.891Z,19.53
2018-03-22T02:20:18.179Z,19.07
2018-03-22T02:22:45.701Z,21.47
2018-03-22T02:25:13.223Z,22.83
2018-03-22T02:27:40.760Z,22.53
2018-03-22T02:30:08.284Z,24.10
2018-03-22T02:32:35.812Z,24.07
2018-03-22T02:35:03.424Z,19.87
2018-03-22T02:37:31.001Z,24.20
2018-03-22T02:39:58.515Z,24.20
2018-03-22T02:42:26.062Z,24.53
2018-03-22T02:44:53.597Z,24.90
2018-03-22T02:47:21.112Z,24.13
2018-03-22T02:49:48.636Z,20.30
2018-03-22T02:52:16.157Z,21.67
2018-03-22T02:54:44.441Z,22.50
2018-03-22T02:57:11.995Z,26.53
2018-03-22T02:59:40.310Z,22.80
2018-03-22T03:02:07.828Z,24.30
2018-03-22T03:04:36.128Z,23.70
2018-03-22T03:07:03.643Z,20.77
2018-03-22T03:09:31.203Z,25.33
2018-03-22T03:11:58.735Z,21.43
2018-03-22T03:14:26.258Z,21.37
2018-03-22T03:16:53.808Z,21.70
2018-03-22T03:19:22.086Z,22.73
2018-03-22T03:21:49.603Z,25.23
2018-03-22T03:24:17.121Z,20.47
2018-03-22T03:26:45.408Z,22.40
2018-03-22T03:29:12.928Z,24.80
2018-03-22T03:31:40.441Z,24.87
2018-03-22T03:34:07.976Z,22.50
2018-03-22T03:36:35.503Z,24.13
2018-03-22T03:39:03.027Z,25.37
2018-03-22T03:41:30.658Z,20.10
2018-03-22T03:43:58.227Z,20.60
2018-03-22T03:46:25.748Z,22.10
2018-03-22T03:48:53.290Z,21.83
2018-03-22T03:51:21.016Z,22.13
2018-03-22T03:53:48.547Z,18.67
2018-03-22T03:56:16.092Z,22.00
2018-03-22T03:58:43.619Z,21.60
2018-03-22T04:01:11.140Z,19.03
2018-03-22T04:03:38.689Z,18.67
2018-03-22T04:06:07.044Z,23.87
2018-03-22T04:08:34.572Z,19.33
2018-03-22T04:11:02.091Z,20.17
2018-03-22T04:13:29.629Z,20.97
2018-03-22T04:15:57.160Z,17.50
2018-03-22T04:18:24.678Z,20.03
2018-03-22T04:20:52.196Z,22.23
2018-03-22T04:23:19.711Z,23.70
2018-03-22T04:25:47.243Z,19.80
2018-03-22T04:28:14.791Z,17.00
2018-03-22T04:30:42.805Z,20.03
2018-03-22T04:33:10.352Z,17.80
2018-03-22T04:35:37.881Z,20.67
2018-03-22T04:38:05.423Z,19.90
2018-03-22T04:40:33.003Z,20.87
2018-03-22T04:43:00.526Z,16.07
2018-03-22T04:45:28.095Z,19.83
2018-03-22T04:47:55.610Z,21.63
2018-03-22T04:50:23.901Z,20.13
2018-03-22T04:52:51.424Z,22.17
2018-03-22T04:55:18.950Z,22.43
2018-03-22T04:57:46.947Z,19.47
2018-03-22T05:00:14.477Z,21.00
2018-03-22T05:02:42.715Z,18.30
2018-03-22T05:05:10.711Z,22.53
2018-03-22T05:07:38.237Z,22.00
2018-03-22T05:10:05.757Z,23.87
2018-03-22T05:12:33.284Z,22.70
2018-03-22T05:15:01.562Z,18.83
2018-03-22T05:17:30.012Z,22.97
2018-03-22T05:19:57.528Z,22.33
2018-03-22T05:22:25.047Z,28.40
2018-03-22T05:24:52.642Z,18.17
2018-03-22T05:27:20.159Z,23.87
2018-03-22T05:29:47.680Z,22.80
2018-03-22T05:32:15.239Z,22.93
2018-03-22T05:34:42.765Z,19.27
2018-03-22T05:37:10.308Z,20.00
2018-03-22T05:39:38.595Z,15.03
2018-03-22T05:42:06.730Z,20.67
2018-03-22T05:44:34.265Z,20.53
2018-03-22T05:47:01.830Z,24.73
2018-03-22T05:49:29.355Z,22.37
2018-03-22T05:51:56.874Z,21.37
2018-03-22T05:54:24.391Z,22.33
2018-03-22T05:56:51.898Z,19.00
2018-03-22T05:59:19.443Z,23.80
2018-03-22T06:01:46.953Z,21.10
2018-03-22T06:04:14.480Z,21.13
2018-03-22T06:06:41.990Z,21.47
2018-03-22T06:09:09.505Z,23.17
2018-03-22T06:11:37.073Z,21.03
2018-03-22T06:14:05.193Z,22.07
2018-03-22T06:16:32.757Z,22.23
2018-03-22T06:19:00.304Z,21.90
2018-03-22T06:21:29.108Z,22.23
2018-03-22T06:23:56.630Z,22.80
2018-03-22T06:26:24.920Z,21.17
2018-03-22T06:28:52.443Z,20.73
2018-03-22T06:31:19.974Z,19.47
2018-03-22T06:33:47.511Z,17.50
2018-03-22T06:36:15.027Z,20.73
2018-03-22T06:38:42.565Z,18.47
2018-03-22T06:41:10.120Z,19.03
2018-03-22T06:43:37.632Z,19.70
2018-03-22T06:46:06.536Z,20.83
2018-03-22T06:48:34.812Z,23.73
2018-03-22T06:51:02.343Z,19.37
2018-03-22T06:53:29.899Z,21.97
2018-03-22T06:55:57.415Z,21.33
2018-03-22T06:58:24.949Z,23.40
2018-03-22T07:00:52.520Z,22.50
2018-03-22T07:03:20.043Z,22.23
2018-03-22T07:05:47.572Z,20.03
2018-03-22T07:08:15.083Z,24.37
2018-03-22T07:10:42.602Z,19.17
2018-03-22T07:13:10.999Z,19.90
2018-03-22T07:15:38.567Z,24.00
2018-03-22T07:18:06.089Z,19.67
2018-03-22T07:20:33.610Z,19.63
2018-03-22T07:23:01.147Z,22.77
2018-03-22T07:25:28.693Z,17.77
2018-03-22T07:27:56.232Z,20.03
2018-03-22T07:30:23.748Z,20.73
2018-03-22T07:32:51.272Z,21.40
2018-03-22T07:35:18.799Z,20.67
2018-03-22T07:37:46.323Z,20.03
2018-03-22T07:40:13.848Z,17.97
2018-03-22T07:42:41.368Z,16.93
2018-03-22T07:45:09.814Z,18.43
2018-03-22T07:47:37.296Z,20.40
2018-03-22T07:50:05.616Z,18.60
2018-03-22T07:52:33.130Z,16.90
2018-03-22T07:55:01.423Z,20.27
2018-03-22T07:57:28.983Z,19.47
2018-03-22T07:59:56.634Z,18.60
2018-03-22T08:02:24.188Z,21.87
2018-03-22T08:04:52.476Z,22.43
2018-03-22T08:07:20.031Z,20.00
2018-03-22T08:09:48.307Z,17.30
2018-03-22T08:12:15.844Z,20.30
2018-03-22T08:14:43.376Z,20.00
2018-03-22T08:17:10.904Z,17.23
2018-03-22T08:19:38.429Z,22.80
2018-03-22T08:22:05.950Z,19.77
2018-03-22T08:24:33.475Z,19.73
2018-03-22T08:27:01.783Z,19.33
2018-03-22T08:29:29.320Z,19.13
2018-03-22T08:31:57.621Z,20.30
2018-03-22T08:34:25.140Z,16.90
2018-03-22T08:36:53.435Z,20.53
2018-03-22T08:39:20.962Z,18.07
2018-03-22T08:41:48.586Z,17.70
2018-03-22T08:44:16.112Z,17.70
2018-03-22T08:46:43.631Z,21.27
2018-03-22T08:49:11.157Z,15.73
2018-03-22T08:51:38.679Z,18.30
2018-03-22T08:54:06.189Z,18.57
2018-03-22T08:56:33.710Z,17.40
2018-03-22T08:59:01.231Z,17.13
2018-03-22T09:01:28.761Z,16.87
2018-03-22T09:03:56.283Z,14.93
2018-03-22T09:06:23.823Z,15.97
2018-03-22T09:08:51.345Z,14.40
2018-03-22T09:11:18.866Z,12.73
2018-03-22T09:13:47.153Z,12.70
2018-03-22T09:16:14.677Z,11.50
2018-03-22T09:18:42.223Z,12.30
2018-03-22T09:21:09.751Z,11.90
2018-03-22T09:23:37.267Z,12.60
2018-03-22T09:26:04.780Z,10.20
2018-03-22T09:28:32.314Z,11.07
2018-03-22T09:31:00.645Z,10.50
2018-03-22T09:33:28.159Z,9.13
2018-03-22T09:35:55.696Z,9.67
2018-03-22T09:38:23.205Z,8.80
2018-03-22T09:40:50.721Z,9.87
2018-03-22T09:43:18.243Z,9.00
2018-03-22T09:45:45.751Z,10.20
2018-03-22T09:48:14.064Z,8.27
2018-03-22T09:50:41.559Z,8.67
2018-03-22T09:53:09.112Z,8.80
2018-03-22T09:55:36.668Z,6.07
2018-03-22T09:58:04.184Z,6.90
2018-03-22T10:00:31.705Z,6.83
2018-03-22T10:02:59.223Z,7.30
2018-03-22T10:05:26.740Z,6.37
2018-03-22T10:07:54.250Z,7.00
2018-03-22T10:10:21.774Z,6.93
2018-03-22T10:12:49.298Z,6.50
2018-03-22T10:15:16.817Z,6.13
2018-03-22T10:17:44.324Z,5.53
2018-03-22T10:20:11.859Z,6.40
2018-03-22T10:22:39.403Z,6.93
2018-03-22T10:25:06.917Z,6.00
2018-03-22T10:27:35.198Z,6.23
2018-03-22T10:30:02.724Z,5.90
2018-03-22T10:32:30.234Z,6.00
2018-03-22T10:34:58.507Z,5.87
2018-03-22T10:37:26.019Z,6.50
2018-03-22T10:39:53.547Z,4.90
2018-03-22T10:42:21.056Z,5.60
2018-03-22T10:44:48.573Z,6.87
2018-03-22T10:47:16.304Z,6.20
2018-03-22T10:49:43.840Z,6.63
2018-03-22T10:52:11.359Z,7.57
2018-03-22T10:54:38.885Z,7.37
2018-03-22T10:57:07.164Z,7.60
2018-03-22T10:59:34.726Z,6.50
2018-03-22T11:02:03.008Z,8.37
2018-03-22T11:04:30.537Z,7.80
2018-03-22T11:06:58.067Z,9.20
2018-03-22T11:09:25.572Z,9.33
2018-03-22T11:11:53.097Z,10.20
2018-03-22T11:14:20.608Z,10.83
2018-03-22T11:16:48.199Z,9.13
2018-03-22T11:19:15.715Z,10.37
2018-03-22T11:21:43.250Z,9.63
2018-03-22T11:24:10.784Z,12.03
2018-03-22T11:26:38.316Z,10.70
2018-03-22T11:29:06.644Z,11.83
2018-03-22T11:31:34.184Z,13.00
2018-03-22T11:34:01.709Z,9.33
2018-03-22T11:36:29.236Z,8.40
2018-03-22T11:38:56.766Z,11.77
2018-03-22T11:41:24.284Z,15.57
2018-03-22T11:43:52.579Z,11.60
2018-03-22T11:46:20.112Z,16.37
2018-03-22T11:48:48.395Z,13.67
2018-03-22T11:51:15.923Z,17.40
2018-03-22T11:53:43.479Z,17.53
2018-03-22T11:56:10.995Z,14.20
2018-03-22T11:58:38.572Z,18.83
2018-03-22T12:01:06.120Z,17.27
2018-03-22T12:03:33.662Z,13.50
2018-03-22T12:06:01.191Z,21.63
2018-03-22T12:08:28.775Z,14.73
2018-03-22T12:10:56.300Z,15.13
2018-03-22T12:13:23.830Z,23.93
2018-03-22T12:15:51.356Z,20.43
2018-03-22T12:18:18.889Z,19.47
2018-03-22T12:20:46.417Z,21.97
2018-03-22T12:23:13.956Z,27.57
2018-03-22T12:25:41.483Z,14.20
2018-03-22T12:28:09.016Z,13.07
2018-03-22T12:30:36.543Z,26.13
2018-03-22T12:33:04.084Z,19.13
2018-03-22T12:35:32.372Z,26.73
2018-03-22T12:38:00.680Z,15.73
2018-03-22T12:40:28.204Z,24.83
2018-03-22T12:42:56.563Z,18.77
2018-03-22T12:45:24.089Z,25.90
2018-03-22T12:47:51.647Z,25.90
2018-03-22T12:50:19.190Z,26.10
2018-03-22T12:52:46.719Z,21.43
2018-03-22T12:55:15.025Z,27.10
2018-03-22T12:57:42.555Z,33.90
2018-03-22T13:00:10.842Z,38.87
2018-03-22T13:02:38.405Z,38.17
2018-03-22T13:05:06.763Z,35.57
2018-03-22T13:07:34.335Z,26.13
2018-03-22T13:10:01.906Z,44.17
2018-03-22T13:12:29.441Z,32.27
2018-03-22T13:14:56.959Z,15.37
2018-03-22T13:17:24.480Z,20.73
2018-03-22T13:19:52.007Z,26.40
2018-03-22T13:22:19.534Z,32.43
2018-03-22T13:24:47.064Z,28.83
2018-03-22T13:27:15.370Z,29.10
2018-03-22T13:29:42.894Z,24.70
2018-03-22T13:32:11.196Z,24.77
2018-03-22T13:34:38.850Z,23.43
2018-03-22T13:37:06.378Z,24.43
2018-03-22T13:39:33.903Z,19.20
2018-03-22T13:42:01.476Z,24.80
2018-03-22T13:44:28.988Z,20.17
2018-03-22T13:46:56.522Z,16.93
2018-03-22T13:49:24.653Z,22.57
2018-03-22T13:51:52.171Z,17.53
2018-03-22T13:54:20.468Z,16.73
2018-03-22T13:56:47.999Z,16.57
2018-03-22T13:59:15.519Z,19.83
2018-03-22T14:01:43.029Z,15.77
2018-03-22T14:04:10.564Z,18.17
2018-03-22T14:06:38.087Z,17.17
2018-03-22T14:09:05.609Z,15.23
2018-03-22T14:11:33.893Z,16.20
2018-03-22T14:14:01.461Z,13.70
2018-03-22T14:16:29.763Z,15.17
2018-03-22T14:18:58.116Z,17.27
2018-03-22T14:21:26.434Z,16.83
2018-03-22T14:23:54.241Z,15.77
2018-03-22T14:26:21.797Z,13.57
2018-03-22T14:28:49.323Z,16.43
2018-03-22T14:31:16.902Z,17.00
2018-03-22T14:33:44.414Z,17.03
2018-03-22T14:36:11.931Z,20.23
2018-03-22T14:38:39.492Z,14.97
2018-03-22T14:41:06.972Z,18.57
2018-03-22T14:43:34.478Z,21.10
2018-03-22T14:46:02.093Z,10.77
2018-03-22T14:48:30.383Z,17.30
2018-03-22T14:50:57.922Z,16.10
2018-03-22T14:53:25.443Z,21.17
2018-03-22T14:55:52.966Z,13.57
2018-03-22T14:58:20.508Z,10.43
2018-03-22T15:00:48.033Z,19.00
2018-03-22T15:03:15.547Z,16.87
2018-03-22T15:05:43.819Z,16.07
2018-03-22T15:08:11.344Z,14.03
2018-03-22T15:10:38.871Z,16.67
2018-03-22T15:13:06.412Z,20.10
2018-03-22T15:15:33.931Z,15.43
2018-03-22T15:18:02.440Z,17.20
2018-03-22T15:20:30.731Z,14.60
2018-03-22T15:22:58.333Z,14.77
2018-03-22T15:25:25.864Z,12.30
2018-03-22T15:27:53.392Z,17.90
2018-03-22T15:30:20.917Z,17.17
2018-03-22T15:32:48.498Z,16.43
2018-03-22T15:35:16.005Z,12.00
2018-03-22T15:37:43.520Z,13.93
2018-03-22T15:40:11.047Z,11.53
2018-03-22T15:42:38.608Z,15.10
2018-03-22T15:45:06.112Z,11.40
2018-03-22T15:47:33.668Z,12.47
2018-03-22T15:50:01.190Z,16.57
2018-03-22T15:52:28.700Z,13.13
2018-03-22T15:54:57.000Z,11.57
2018-03-22T15:57:24.523Z,12.00
2018-03-22T15:59:52.039Z,13.90
2018-03-22T16:02:19.597Z,14.27
2018-03-22T16:04:47.116Z,10.73
2018-03-22T16:07:15.361Z,10.87
2018-03-22T16:09:42.899Z,14.90
2018-03-22T16:12:10.424Z,12.10
2018-03-22T16:14:37.956Z,15.43
2018-03-22T16:17:05.537Z,13.67
2018-03-22T16:19:33.076Z,10.37
2018-03-22T16:22:00.614Z,11.10
2018-03-22T16:24:28.199Z,17.53
2018-03-22T16:26:55.704Z,9.67
2018-03-22T16:29:23.211Z,13.93
2018-03-22T16:31:50.805Z,14.77
2018-03-22T16:34:19.134Z,15.77
2018-03-22T16:36:46.674Z,15.50
2018-03-22T16:39:14.193Z,16.33
2018-03-22T16:41:41.712Z,16.57
2018-03-22T16:44:09.243Z,11.43
2018-03-22T16:46:36.760Z,12.70
2018-03-22T16:49:04.280Z,10.57
2018-03-22T16:51:31.827Z,14.43
2018-03-22T16:53:59.352Z,14.73
2018-03-22T16:56:26.923Z,18.73
2018-03-22T16:58:55.231Z,15.17
2018-03-22T17:01:22.775Z,17.73
2018-03-22T17:03:51.104Z,19.20
2018-03-22T17:06:18.619Z,21.37
2018-03-22T17:08:46.352Z,17.97
2018-03-22T17:11:14.258Z,20.63
2018-03-22T17:13:42.108Z,22.57
2018-03-22T17:16:09.707Z,17.73
2018-03-22T17:18:37.236Z,18.97
2018-03-22T17:21:04.763Z,21.93
2018-03-22T17:23:33.767Z,22.07
2018-03-22T17:26:01.735Z,19.47
2018-03-22T17:28:29.719Z,16.67
2018-03-22T17:30:58.023Z,21.00
2018-03-22T17:33:25.543Z,21.67
2018-03-22T17:35:53.116Z,28.08
2018-03-22T17:38:20.728Z,21.33
2018-03-22T17:40:48.264Z,16.20
2018-03-22T17:43:15.792Z,23.13
2018-03-22T17:45:43.314Z,19.27
2018-03-22T17:48:10.832Z,19.57
2018-03-22T17:50:38.396Z,17.47
2018-03-22T17:53:06.689Z,18.33
2018-03-22T17:55:34.206Z,11.27
2018-03-22T17:58:02.119Z,19.90
2018-03-22T18:00:29.639Z,24.10
2018-03-22T18:02:57.228Z,19.83
2018-03-22T18:05:24.764Z,20.00
2018-03-22T18:07:52.274Z,21.70
2018-03-22T18:10:19.809Z,19.90
2018-03-22T18:12:47.340Z,19.63
2018-03-22T18:15:14.879Z,19.60
2018-03-22T18:17:42.417Z,17.50
2018-03-22T18:20:09.954Z,16.37
2018-03-22T18:22:37.492Z,23.77
2018-03-22T18:25:05.015Z,17.87
2018-03-22T18:27:32.527Z,15.83
2018-03-22T18:30:00.812Z,16.50
2018-03-22T18:32:29.119Z,21.03
2018-03-22T18:34:56.841Z,19.13
2018-03-22T18:37:24.367Z,19.23
2018-03-22T18:39:51.916Z,16.97
2018-03-22T18:42:19.432Z,18.87
2018-03-22T18:44:46.956Z,17.87
2018-03-22T18:47:14.500Z,19.97
2018-03-22T18:49:42.066Z,22.60
2018-03-22T18:52:09.602Z,22.50
2018-03-22T18:54:37.145Z,27.10
2018-03-22T18:57:04.673Z,25.83
2018-03-22T18:59:32.193Z,20.33
2018-03-22T19:01:59.752Z,20.17
2018-03-22T19:04:27.304Z,19.83
2018-03-22T19:06:54.827Z,22.37
2018-03-22T19:09:23.188Z,20.20
2018-03-22T19:11:50.715Z,27.27
2018-03-22T19:14:18.240Z,19.97
2018-03-22T19:16:46.531Z,23.87
2018-03-22T19:19:14.054Z,26.40
2018-03-22T19:21:41.642Z,21.60
2018-03-22T19:24:09.143Z,26.50
2018-03-22T19:26:36.658Z,22.50
2018-03-22T19:29:04.717Z,21.53
2018-03-22T19:31:33.052Z,25.10
2018-03-22T19:34:00.687Z,26.90
2018-03-22T19:36:28.333Z,27.40
2018-03-22T19:38:57.616Z,27.47
2018-03-22T19:41:25.164Z,29.73
2018-03-22T19:43:52.701Z,24.17
2018-03-22T19:46:20.327Z,25.50
2018-03-22T19:48:47.947Z,25.53
2018-03-22T19:51:15.519Z,28.07
2018-03-22T19:53:43.147Z,32.13
2018-03-22T19:56:10.704Z,26.73
2018-03-22T19:58:38.887Z,26.57
2018-03-22T20:01:06.413Z,26.93
2018-03-22T20:03:33.931Z,26.30
2018-03-22T20:06:01.519Z,28.17
2018-03-22T20:08:29.832Z,27.73
2018-03-22T20:10:57.357Z,33.93
2018-03-22T20:13:25.752Z,30.37
2018-03-22T20:15:53.283Z,33.57
2018-03-22T20:18:20.808Z,33.70
2018-03-22T20:20:48.328Z,31.63
2018-03-22T20:23:15.874Z,34.93
2018-03-22T20:25:44.168Z,37.07
2018-03-22T20:28:11.680Z,33.57
2018-03-22T20:30:39.209Z,39.07
2018-03-22T20:33:06.743Z,39.60
2018-03-22T20:35:35.027Z,42.60
2018-03-22T20:38:02.568Z,35.73
2018-03-22T20:40:30.099Z,39.57
2018-03-22T20:42:57.662Z,40.53
2018-03-22T20:45:25.175Z,42.43
2018-03-22T20:47:52.695Z,46.90
2018-03-22T20:50:20.260Z,41.60
2018-03-22T20:52:47.843Z,48.47
2018-03-22T20:55:16.136Z,43.30
2018-03-22T20:57:43.676Z,40.40
2018-03-22T21:00:12.211Z,46.67
2018-03-22T21:02:39.952Z,49.47
2018-03-22T21:05:07.487Z,52.30
2018-03-22T21:07:35.021Z,45.03
2018-03-22T21:10:02.593Z,45.20
2018-03-22T21:12:30.128Z,47.30
2018-03-22T21:14:57.681Z,55.47
2018-03-22T21:17:25.803Z,49.17
2018-03-22T21:19:54.132Z,61.27
2018-03-22T21:22:21.692Z,46.67
2018-03-22T21:24:49.209Z,57.10
2018-03-22T21:27:16.740Z,55.60
2018-03-22T21:29:45.444Z,46.03
2018-03-22T21:32:12.982Z,46.90
2018-03-22T21:34:40.522Z,45.07
2018-03-22T21:37:08.071Z,45.17
2018-03-22T21:39:36.123Z,49.50
2018-03-22T21:42:05.580Z,50.30
2018-03-22T21:44:33.107Z,47.87
2018-03-22T21:47:12.368Z,55.87
2018-03-22T21:49:39.891Z,54.43
2018-03-22T21:52:20.514Z,42.53
2018-03-22T21:54:48.040Z,48.70
2018-03-22T21:57:15.613Z,46.20
2018-03-22T21:59:43.149Z,44.30
2018-03-22T22:02:10.723Z,46.63
2018-03-22T22:04:38.244Z,45.10
2018-03-22T22:07:06.571Z,43.37
2018-03-22T22:09:34.112Z,40.40
2018-03-22T22:12:01.645Z,42.77
2018-03-22T22:14:29.196Z,41.73
2018-03-22T22:16:57.164Z,42.97
2018-03-22T22:19:25.051Z,43.90
2018-03-22T22:21:52.613Z,42.00
2018-03-22T22:24:20.132Z,35.57
2018-03-22T22:26:47.673Z,37.73
2018-03-22T22:29:15.191Z,41.13
2018-03-22T22:31:42.720Z,41.07
2018-03-22T22:34:10.238Z,39.73
2018-03-22T22:36:37.773Z,37.30
2018-03-22T22:39:05.303Z,45.50
2018-03-22T22:41:32.852Z,44.00
2018-03-22T22:44:00.382Z,40.33
2018-03-22T22:46:27.912Z,39.17
2018-03-22T22:48:55.445Z,40.87
2018-03-22T22:51:22.970Z,44.87
2018-03-22T22:53:50.508Z,46.47
2018-03-22T22:56:18.020Z,43.43
2018-03-22T22:58:45.553Z,45.57
2018-03-22T23:01:13.081Z,45.57
2018-03-22T23:03:40.626Z,45.87
2018-03-22T23:06:08.920Z,45.23
2018-03-22T23:08:36.456Z,45.13
2018-03-22T23:11:04.637Z,47.47
2018-03-22T23:13:32.166Z,46.73
2018-03-22T23:15:59.734Z,45.30
2018-03-22T23:18:27.238Z,48.57
2018-03-22T23:20:54.779Z,45.40
2018-03-22T23:23:22.912Z,44.17
2018-03-22T23:25:50.442Z,46.17
2018-03-22T23:28:17.956Z,41.17
2018-03-22T23:30:45.483Z,49.70
2018-03-22T23:33:13.002Z,46.23
2018-03-22T23:35:40.535Z,45.53
2018-03-22T23:38:08.118Z,44.73
2018-03-22T23:40:36.441Z,45.53
2018-03-22T23:43:03.980Z,44.50
2018-03-22T23:45:31.512Z,45.00
2018-03-22T23:47:59.055Z,43.17
2018-03-22T23:50:26.625Z,48.10
2018-03-22T23:52:54.143Z,49.53
2018-03-22T23:55:21.662Z,47.20
2018-03-22T23:57:49.183Z,49.50
